Time;durP1;ratioP1;P1;durP2;ratioP2;P2;SDS_P1;SDS_P2;PMS_P1;PMS_P2;Temp;Humidity;BMP_temperature;BMP_pressure;BME280_temperature;BME280_humidity;BME280_pressure;Samples;Min_cycle;Max_cycle;Signal;HPM_P1;HPM_P2
2022/10/17 00:01:32;;;;;;;;;;;14.90;99.90;;;;;;4955012;28;19911;-69
2022/10/17 00:03:58;;;;;;;;;;;15.00;99.90;;;;;;4955142;28;20001;-68
2022/10/17 00:06:26;;;;;;;;;;;15.00;99.90;;;;;;4954257;28;19936;-69
2022/10/17 00:08:53;;;;;;;;;;;15.10;99.90;;;;;;4954980;28;19953;-69
2022/10/17 00:11:21;;;;;;;;;;;15.10;99.90;;;;;;4954804;28;19925;-70
2022/10/17 00:13:49;;;;;;;;;;;15.00;99.90;;;;;;4955006;28;19914;-72
2022/10/17 00:16:26;;;;;;;;;;;15.00;99.90;;;;;;4955100;28;19934;-71
2022/10/17 00:18:53;;;;;;;;;;;14.90;99.90;;;;;;4954806;28;19954;-69
2022/10/17 00:21:21;;;;;;;;;;;14.90;99.90;;;;;;4954370;28;19914;-68
2022/10/17 00:23:47;;;;;;;;;;;15.00;99.90;;;;;;4954804;28;19949;-71
2022/10/17 00:26:15;;;;;;;;;;;14.90;99.90;;;;;;4954726;28;19910;-68
2022/10/17 00:28:41;;;;;;;;;;;14.90;99.90;;;;;;4954584;28;20380;-68
2022/10/17 00:31:08;;;;;;;;;;;14.80;99.90;;;;;;4954878;28;19918;-68
2022/10/17 00:33:35;;;;;;;;;;;14.80;99.90;;;;;;4954372;28;19917;-68
2022/10/17 00:36:03;;;;;;;;;;;14.70;99.90;;;;;;4954237;28;19922;-67
2022/10/17 00:38:30;;;;;;;;;;;14.60;99.90;;;;;;4954655;28;19926;-68
2022/10/17 00:40:57;;;;;;;;;;;14.50;99.90;;;;;;4954331;28;19985;-67
2022/10/17 00:43:24;;;;;;;;;;;14.70;99.90;;;;;;4954276;28;19910;-67
2022/10/17 00:45:50;;;;;;;;;;;14.80;99.90;;;;;;4954585;28;19914;-67
2022/10/17 00:48:17;;;;;;;;;;;14.90;99.90;;;;;;4953069;29;19941;-70
2022/10/17 00:50:47;;;;;;;;;;;15.10;99.90;;;;;;4953932;28;19922;-71
2022/10/17 00:53:14;;;;;;;;;;;15.20;99.90;;;;;;4953718;28;19914;-67
2022/10/17 00:55:51;;;;;;;;;;;15.20;99.90;;;;;;4954323;28;19966;-69
2022/10/17 00:58:18;;;;;;;;;;;15.10;99.90;;;;;;4954331;28;19918;-71
2022/10/17 01:00:46;;;;;;;;;;;15.10;99.90;;;;;;4953926;28;20262;-68
2022/10/17 01:03:13;;;;;;;;;;;15.10;99.90;;;;;;4953851;28;20365;-71
2022/10/17 01:05:40;;;;;;;;;;;15.00;99.90;;;;;;4954042;28;19910;-70
2022/10/17 01:08:07;;;;;;;;;;;15.10;99.90;;;;;;4954013;28;20001;-68
2022/10/17 01:10:49;;;;;;;;;;;15.00;99.90;;;;;;4954021;28;19950;-70
2022/10/17 01:13:23;;;;;;;;;;;15.10;99.90;;;;;;4953773;28;19960;-67
2022/10/17 01:15:55;;;;;;;;;;;15.20;99.90;;;;;;4954037;28;20280;-69
2022/10/17 01:18:22;;;;;;;;;;;15.10;99.90;;;;;;4960348;28;19914;-69
2022/10/17 01:20:52;;;;;;;;;;;15.10;99.90;;;;;;4960011;28;19918;-69
2022/10/17 01:23:18;;;;;;;;;;;15.30;99.90;;;;;;4959970;28;20346;-69
2022/10/17 01:25:45;;;;;;;;;;;15.50;99.90;;;;;;4960339;28;19939;-67
2022/10/17 01:28:21;;;;;;;;;;;15.80;99.90;;;;;;4960192;28;20338;-66
2022/10/17 01:30:59;;;;;;;;;;;16.00;99.90;;;;;;4960029;28;19914;-68
2022/10/17 01:33:44;;;;;;;;;;;16.20;99.90;;;;;;4960071;28;19910;-67
2022/10/17 01:36:30;;;;;;;;;;;16.40;99.90;;;;;;4960185;28;19977;-67
2022/10/17 01:39:10;;;;;;;;;;;16.50;99.90;;;;;;4955910;29;19915;-67
2022/10/17 01:41:43;;;;;;;;;;;16.70;99.90;;;;;;4959954;28;19917;-66
2022/10/17 01:44:22;;;;;;;;;;;16.70;99.90;;;;;;4960190;28;20002;-67
2022/10/17 01:46:53;;;;;;;;;;;16.80;99.90;;;;;;4959980;28;19963;-66
2022/10/17 01:49:24;;;;;;;;;;;16.80;99.90;;;;;;4959779;28;19927;-66
2022/10/17 01:51:56;;;;;;;;;;;16.90;99.90;;;;;;4959665;28;20366;-70
2022/10/17 01:54:29;;;;;;;;;;;16.90;99.90;;;;;;4960197;28;19918;-67
2022/10/17 01:57:01;;;;;;;;;;;16.90;99.90;;;;;;4959895;28;20400;-66
2022/10/17 01:59:39;;;;;;;;;;;17.00;99.90;;;;;;4959968;28;20057;-67
2022/10/17 02:02:07;;;;;;;;;;;17.00;99.90;;;;;;4959748;28;20009;-68
2022/10/17 02:04:34;;;;;;;;;;;17.10;99.90;;;;;;4959973;28;19921;-70
2022/10/17 02:07:09;;;;;;;;;;;17.20;99.90;;;;;;4959892;28;20357;-66
2022/10/17 02:09:36;;;;;;;;;;;17.20;99.90;;;;;;4960056;28;19915;-66
2022/10/17 02:12:12;;;;;;;;;;;17.20;99.90;;;;;;4959479;28;19936;-66
2022/10/17 02:14:51;;;;;;;;;;;17.30;99.90;;;;;;4959661;28;19933;-67
2022/10/17 02:17:20;;;;;;;;;;;17.30;99.90;;;;;;4959842;28;19918;-67
2022/10/17 02:19:59;;;;;;;;;;;17.40;99.90;;;;;;4959585;28;19922;-66
2022/10/17 02:22:34;;;;;;;;;;;17.40;99.90;;;;;;4959456;28;19918;-68
2022/10/17 02:25:19;;;;;;;;;;;17.40;99.90;;;;;;4959815;28;19976;-68
2022/10/17 02:27:48;;;;;;;;;;;17.50;99.90;;;;;;4958758;28;19911;-66
2022/10/17 02:30:26;;;;;;;;;;;17.50;99.90;;;;;;4957030;28;20277;-65
2022/10/17 02:33:06;;;;;;;;;;;17.60;99.90;;;;;;4955016;29;19910;-67
2022/10/17 02:35:36;;;;;;;;;;;17.60;99.90;;;;;;4956541;28;19918;-65
2022/10/17 02:38:04;;;;;;;;;;;17.70;99.90;;;;;;4956661;28;19910;-65
2022/10/17 02:40:31;;;;;;;;;;;17.70;99.90;;;;;;4956604;28;19911;-66
2022/10/17 02:42:59;;;;;;;;;;;17.60;99.90;;;;;;4956126;28;19910;-68
2022/10/17 02:45:27;;;;;;;;;;;17.60;99.90;;;;;;4956495;28;19911;-66
2022/10/17 02:48:05;;;;;;;;;;;17.60;99.90;;;;;;4956452;28;20019;-66
2022/10/17 02:50:45;;;;;;;;;;;17.60;99.90;;;;;;4956173;28;20412;-66
2022/10/17 02:53:15;;;;;;;;;;;17.70;99.90;;;;;;4955962;28;19918;-65
2022/10/17 02:55:50;;;;;;;;;;;17.70;99.90;;;;;;4956221;28;19977;-67
2022/10/17 02:58:23;;;;;;;;;;;17.90;99.90;;;;;;4956341;28;20007;-68
2022/10/17 03:00:49;;;;;;;;;;;17.90;99.90;;;;;;4955879;28;19910;-67
2022/10/17 03:03:23;;;;;;;;;;;18.00;99.90;;;;;;4955677;28;19914;-67
2022/10/17 03:05:51;;;;;;;;;;;18.10;99.90;;;;;;4956036;28;20326;-66
2022/10/17 03:08:17;;;;;;;;;;;18.20;99.90;;;;;;4955933;28;19925;-66
2022/10/17 03:10:44;;;;;;;;;;;18.30;99.90;;;;;;4955691;28;19921;-67
2022/10/17 03:13:11;;;;;;;;;;;18.40;99.90;;;;;;4955529;28;20362;-68
2022/10/17 03:15:37;;;;;;;;;;;18.50;99.90;;;;;;4955799;28;19923;-67
2022/10/17 03:18:04;;;;;;;;;;;18.40;99.90;;;;;;4955705;28;19910;-68
2022/10/17 03:20:31;;;;;;;;;;;18.10;99.90;;;;;;4956038;28;19914;-67
2022/10/17 03:22:57;;;;;;;;;;;18.00;99.90;;;;;;4955013;28;19977;-69
2022/10/17 03:25:24;;;;;;;;;;;17.80;99.90;;;;;;4955631;28;19910;-70
2022/10/17 03:27:51;;;;;;;;;;;17.70;99.90;;;;;;4955363;28;19922;-66
2022/10/17 03:30:18;;;;;;;;;;;17.60;99.90;;;;;;4955609;28;20013;-70
2022/10/17 03:32:45;;;;;;;;;;;17.60;99.90;;;;;;4954944;28;19911;-66
2022/10/17 03:35:12;;;;;;;;;;;17.50;99.90;;;;;;4955191;28;19931;-66
2022/10/17 03:37:38;;;;;;;;;;;17.50;99.90;;;;;;4955129;28;20313;-67
2022/10/17 03:40:05;;;;;;;;;;;17.60;99.90;;;;;;4954176;28;20018;-69
2022/10/17 03:42:32;;;;;;;;;;;17.60;99.90;;;;;;4955119;28;19915;-67
2022/10/17 03:44:59;;;;;;;;;;;17.60;99.90;;;;;;4955045;28;19910;-67
2022/10/17 03:47:25;;;;;;;;;;;17.60;99.90;;;;;;4955362;28;20017;-67
2022/10/17 03:49:52;;;;;;;;;;;17.70;99.90;;;;;;4955176;28;20319;-68
2022/10/17 03:52:19;;;;;;;;;;;17.60;99.90;;;;;;4954653;28;19916;-70
2022/10/17 03:54:46;;;;;;;;;;;17.70;99.90;;;;;;4954880;28;20324;-69
2022/10/17 03:57:12;;;;;;;;;;;17.60;99.90;;;;;;4955077;28;19915;-67
2022/10/17 03:59:39;;;;;;;;;;;17.60;99.90;;;;;;4954983;28;19997;-70
2022/10/17 04:02:06;;;;;;;;;;;17.50;99.90;;;;;;4955101;28;19922;-68
2022/10/17 04:04:32;;;;;;;;;;;17.60;99.90;;;;;;4954981;28;19946;-69
2022/10/17 04:06:59;;;;;;;;;;;17.60;99.90;;;;;;4954631;28;20373;-68
2022/10/17 04:09:25;;;;;;;;;;;17.50;99.90;;;;;;4954706;28;19937;-68
2022/10/17 04:11:52;;;;;;;;;;;17.50;99.90;;;;;;4954200;28;20266;-71
2022/10/17 04:14:19;;;;;;;;;;;17.50;99.90;;;;;;4954638;28;19911;-69
2022/10/17 04:16:46;;;;;;;;;;;17.50;99.90;;;;;;4954461;28;19918;-66
2022/10/17 04:19:13;;;;;;;;;;;17.50;99.90;;;;;;4954667;28;19914;-70
2022/10/17 04:21:39;;;;;;;;;;;17.50;99.90;;;;;;4954287;28;19917;-70
2022/10/17 04:24:09;;;;;;;;;;;17.60;99.90;;;;;;4953256;28;20350;-68
2022/10/17 04:26:36;;;;;;;;;;;17.60;99.90;;;;;;4954287;29;20451;-69
2022/10/17 04:29:02;;;;;;;;;;;17.60;99.90;;;;;;4954694;28;19910;-69
2022/10/17 04:31:29;;;;;;;;;;;17.60;99.90;;;;;;4954111;28;20349;-68
2022/10/17 04:33:55;;;;;;;;;;;17.60;99.90;;;;;;4954453;28;20389;-68
2022/10/17 04:36:22;;;;;;;;;;;17.70;99.90;;;;;;4954206;28;19946;-67
2022/10/17 04:38:49;;;;;;;;;;;17.80;99.90;;;;;;4953998;28;19915;-68
2022/10/17 04:41:17;;;;;;;;;;;17.90;99.90;;;;;;4954109;28;19961;-69
2022/10/17 04:43:44;;;;;;;;;;;18.00;99.90;;;;;;4953257;28;19910;-67
2022/10/17 04:46:12;;;;;;;;;;;18.00;99.90;;;;;;4954033;28;19958;-67
2022/10/17 04:48:39;;;;;;;;;;;18.00;99.90;;;;;;4954039;28;19953;-67
2022/10/17 04:51:08;;;;;;;;;;;18.00;99.90;;;;;;4953237;28;20214;-70
2022/10/17 04:53:36;;;;;;;;;;;17.80;99.90;;;;;;4954537;28;20350;-67
2022/10/17 04:56:07;;;;;;;;;;;17.70;99.90;;;;;;4954002;28;20321;-66
2022/10/17 04:58:34;;;;;;;;;;;17.60;99.90;;;;;;4954178;28;19911;-66
2022/10/17 05:01:04;;;;;;;;;;;17.60;99.90;;;;;;4953646;28;20432;-68
2022/10/17 05:03:30;;;;;;;;;;;17.60;99.90;;;;;;4954137;28;19915;-65
2022/10/17 05:05:57;;;;;;;;;;;17.50;99.90;;;;;;4953926;28;19914;-69
2022/10/17 05:08:24;;;;;;;;;;;17.30;99.90;;;;;;4954006;28;20361;-67
2022/10/17 05:10:50;;;;;;;;;;;17.30;99.90;;;;;;4953594;28;19914;-66
2022/10/17 05:13:17;;;;;;;;;;;17.30;99.90;;;;;;4953874;28;19997;-65
2022/10/17 05:15:44;;;;;;;;;;;17.30;99.90;;;;;;4952679;28;19922;-71
2022/10/17 05:18:10;;;;;;;;;;;17.30;99.90;;;;;;4953828;28;19958;-66
2022/10/17 05:20:37;;;;;;;;;;;17.30;99.90;;;;;;4953594;28;19911;-67
2022/10/17 05:23:04;;;;;;;;;;;17.10;99.90;;;;;;4953904;28;19921;-67
2022/10/17 05:25:30;;;;;;;;;;;17.10;99.90;;;;;;4953782;28;19914;-68
2022/10/17 05:27:57;;;;;;;;;;;17.00;99.90;;;;;;4953809;28;19939;-67
2022/10/17 05:30:24;;;;;;;;;;;17.10;99.90;;;;;;4953806;28;19937;-69
2022/10/17 05:32:54;;;;;;;;;;;17.00;99.90;;;;;;4953242;28;20289;-68
2022/10/17 05:35:21;;;;;;;;;;;17.00;99.90;;;;;;4953762;28;19927;-68
2022/10/17 05:37:48;;;;;;;;;;;17.00;99.90;;;;;;4953567;28;19997;-68
2022/10/17 05:40:15;;;;;;;;;;;17.10;99.90;;;;;;4953645;28;19914;-68
2022/10/17 05:42:45;;;;;;;;;;;17.10;99.90;;;;;;4953100;28;19911;-68
2022/10/17 05:45:12;;;;;;;;;;;17.10;99.90;;;;;;4953547;28;19953;-70
2022/10/17 05:47:38;;;;;;;;;;;17.20;99.90;;;;;;4953490;28;19911;-68
2022/10/17 05:50:05;;;;;;;;;;;17.20;99.90;;;;;;4953136;28;20018;-67
2022/10/17 05:52:32;;;;;;;;;;;17.20;99.90;;;;;;4953540;28;20353;-68
2022/10/17 05:54:58;;;;;;;;;;;17.20;99.90;;;;;;4953110;28;20009;-69
2022/10/17 05:57:26;;;;;;;;;;;17.20;99.90;;;;;;4953269;28;19921;-69
2022/10/17 05:59:52;;;;;;;;;;;17.20;99.90;;;;;;4953127;28;20368;-67
2022/10/17 06:02:19;;;;;;;;;;;17.20;99.90;;;;;;4953017;28;19911;-68
2022/10/17 06:04:47;;;;;;;;;;;17.20;99.90;;;;;;4955740;28;19920;-68
2022/10/17 06:07:14;;;;;;;;;;;17.20;99.90;;;;;;4956895;28;19961;-67
2022/10/17 06:09:41;;;;;;;;;;;17.30;99.90;;;;;;4956905;28;20352;-67
2022/10/17 06:12:08;;;;;;;;;;;17.30;99.90;;;;;;4956538;28;19910;-67
2022/10/17 06:14:34;;;;;;;;;;;17.30;99.90;;;;;;4956692;28;19950;-68
2022/10/17 06:17:01;;;;;;;;;;;17.40;99.90;;;;;;4956898;28;20341;-67
2022/10/17 06:19:28;;;;;;;;;;;17.40;99.90;;;;;;4956750;28;20369;-68
2022/10/17 06:21:54;;;;;;;;;;;17.40;99.90;;;;;;4956222;28;19957;-68
2022/10/17 06:24:21;;;;;;;;;;;17.30;99.90;;;;;;4956780;28;20031;-68
2022/10/17 06:26:48;;;;;;;;;;;17.30;99.90;;;;;;4956421;28;19938;-69
2022/10/17 06:29:15;;;;;;;;;;;17.20;99.90;;;;;;4956663;28;20393;-68
2022/10/17 06:31:42;;;;;;;;;;;17.20;99.90;;;;;;4956444;28;19969;-68
2022/10/17 06:34:08;;;;;;;;;;;17.10;99.90;;;;;;4955106;29;19911;-69
2022/10/17 06:36:35;;;;;;;;;;;17.10;99.90;;;;;;4956198;28;19918;-67
2022/10/17 06:39:02;;;;;;;;;;;17.10;99.90;;;;;;4956292;28;19914;-68
2022/10/17 06:41:28;;;;;;;;;;;17.00;99.90;;;;;;4956077;28;19910;-68
2022/10/17 06:43:55;;;;;;;;;;;17.00;99.90;;;;;;4956388;28;19911;-70
2022/10/17 06:46:25;;;;;;;;;;;17.00;99.90;;;;;;4956180;28;20017;-68
2022/10/17 06:48:52;;;;;;;;;;;16.90;99.90;;;;;;4955786;28;20285;-69
2022/10/17 06:51:18;;;;;;;;;;;16.90;99.90;;;;;;4955578;28;19930;-68
2022/10/17 06:53:46;;;;;;;;;;;16.80;99.90;;;;;;4955967;28;19950;-68
2022/10/17 06:56:12;;;;;;;;;;;16.80;99.90;;;;;;4955945;28;20017;-69
2022/10/17 06:58:39;;;;;;;;;;;16.80;99.90;;;;;;4955964;28;19954;-68
2022/10/17 07:01:07;;;;;;;;;;;16.70;99.90;;;;;;4955451;28;19914;-70
2022/10/17 07:03:34;;;;;;;;;;;16.80;99.90;;;;;;4955799;28;19911;-68
2022/10/17 07:06:01;;;;;;;;;;;16.70;99.90;;;;;;4955676;28;19915;-69
2022/10/17 07:08:28;;;;;;;;;;;16.70;99.90;;;;;;4955664;29;19961;-72
2022/10/17 07:10:54;;;;;;;;;;;16.60;99.90;;;;;;4955191;28;19916;-68
2022/10/17 07:13:24;;;;;;;;;;;16.60;99.90;;;;;;4955732;28;19914;-70
2022/10/17 07:15:51;;;;;;;;;;;16.60;99.90;;;;;;4954307;28;20243;-68
2022/10/17 07:18:18;;;;;;;;;;;16.50;99.90;;;;;;4955778;28;19922;-70
2022/10/17 07:20:52;;;;;;;;;;;16.50;99.90;;;;;;4954829;28;20035;-68
2022/10/17 07:23:18;;;;;;;;;;;16.50;99.90;;;;;;4955952;28;19918;-70
2022/10/17 07:25:45;;;;;;;;;;;16.50;99.90;;;;;;4955637;28;19921;-68
2022/10/17 07:28:13;;;;;;;;;;;16.50;99.90;;;;;;4955395;28;20334;-67
2022/10/17 07:30:39;;;;;;;;;;;16.50;99.90;;;;;;4954920;28;20438;-68
2022/10/17 07:33:06;;;;;;;;;;;16.60;99.90;;;;;;4955317;28;20399;-70
2022/10/17 07:35:33;;;;;;;;;;;16.60;99.90;;;;;;4955108;28;20355;-69
2022/10/17 07:38:00;;;;;;;;;;;16.60;99.90;;;;;;4955344;28;20602;-69
2022/10/17 07:40:26;;;;;;;;;;;16.60;99.90;;;;;;4955383;28;19911;-68
2022/10/17 07:42:55;;;;;;;;;;;16.50;99.90;;;;;;4954990;28;19914;-68
2022/10/17 07:45:22;;;;;;;;;;;16.50;99.90;;;;;;4955176;28;19915;-68
2022/10/17 07:47:49;;;;;;;;;;;16.40;99.90;;;;;;4955383;28;19926;-68
2022/10/17 07:50:16;;;;;;;;;;;16.50;99.90;;;;;;4954938;28;19926;-68
2022/10/17 07:52:42;;;;;;;;;;;16.40;99.90;;;;;;4954400;28;20354;-68
2022/10/17 07:55:09;;;;;;;;;;;16.40;99.90;;;;;;4954912;28;19919;-68
2022/10/17 07:57:36;;;;;;;;;;;16.30;99.90;;;;;;4954983;28;19910;-68
2022/10/17 08:00:03;;;;;;;;;;;16.30;99.90;;;;;;4954721;28;19950;-68
2022/10/17 08:02:29;;;;;;;;;;;16.30;99.90;;;;;;4954441;29;19929;-67
2022/10/17 08:04:56;;;;;;;;;;;16.30;99.90;;;;;;4954762;28;19914;-68
2022/10/17 08:07:23;;;;;;;;;;;16.30;99.90;;;;;;4954717;28;19914;-68
2022/10/17 08:09:49;;;;;;;;;;;16.30;99.90;;;;;;4954650;28;19917;-68
2022/10/17 08:12:16;;;;;;;;;;;16.30;99.90;;;;;;4954381;28;19970;-68
2022/10/17 08:14:43;;;;;;;;;;;16.30;99.90;;;;;;4954542;28;19915;-68
2022/10/17 08:17:13;;;;;;;;;;;16.30;99.90;;;;;;4954803;28;20243;-67
2022/10/17 08:19:40;;;;;;;;;;;16.30;99.90;;;;;;4954555;28;20493;-69
2022/10/17 08:22:07;;;;;;;;;;;16.30;99.90;;;;;;4954222;28;19914;-69
2022/10/17 08:24:34;;;;;;;;;;;16.20;99.90;;;;;;4953163;28;19993;-69
2022/10/17 08:27:00;;;;;;;;;;;16.30;99.90;;;;;;4953569;28;19915;-67
2022/10/17 08:29:27;;;;;;;;;;;16.30;99.90;;;;;;4953114;28;19914;-68
2022/10/17 08:31:54;;;;;;;;;;;16.30;99.90;;;;;;4953977;28;19950;-70
2022/10/17 08:34:21;;;;;;;;;;;16.40;99.90;;;;;;4954033;28;19918;-67
2022/10/17 08:36:47;;;;;;;;;;;16.40;99.90;;;;;;4954228;28;20361;-68
2022/10/17 08:39:14;;;;;;;;;;;16.40;99.90;;;;;;4954153;28;19933;-67
2022/10/17 08:41:55;;;;;;;;;;;16.40;99.90;;;;;;4953946;28;20325;-69
2022/10/17 08:44:25;;;;;;;;;;;16.40;99.90;;;;;;4954152;29;19915;-68
2022/10/17 08:46:53;;;;;;;;;;;16.40;99.90;;;;;;4953910;28;19910;-69
2022/10/17 08:49:33;;;;;;;;;;;16.40;99.90;;;;;;4953855;28;20030;-69
2022/10/17 08:52:05;;;;;;;;;;;16.30;99.90;;;;;;4953738;28;20281;-68
2022/10/17 08:54:35;;;;;;;;;;;16.30;99.90;;;;;;4954093;28;19910;-68
2022/10/17 08:57:01;;;;;;;;;;;16.30;99.90;;;;;;4953950;28;19933;-69
2022/10/17 08:59:30;;;;;;;;;;;16.30;99.90;;;;;;4954125;28;19917;-68
2022/10/17 09:02:00;;;;;;;;;;;16.30;99.90;;;;;;4953820;28;19918;-67
2022/10/17 09:04:45;;;;;;;;;;;16.30;99.90;;;;;;4953933;28;19935;-68
2022/10/17 09:07:26;;;;;;;;;;;16.30;99.90;;;;;;4954095;28;19915;-69
2022/10/17 09:09:56;;;;;;;;;;;16.20;99.90;;;;;;4954227;28;19958;-68
2022/10/17 09:12:22;;;;;;;;;;;16.20;99.90;;;;;;4953690;28;19964;-67
2022/10/17 09:15:01;;;;;;;;;;;16.20;99.90;;;;;;4953659;29;19961;-67
2022/10/17 09:17:27;;;;;;;;;;;16.30;99.90;;;;;;4954047;28;19915;-68
2022/10/17 09:19:57;;;;;;;;;;;16.30;99.90;;;;;;4953915;28;19925;-68
2022/10/17 09:22:27;;;;;;;;;;;16.30;99.90;;;;;;4953662;28;19953;-68
2022/10/17 09:24:57;;;;;;;;;;;16.20;99.90;;;;;;4953770;28;20016;-67
2022/10/17 09:27:23;;;;;;;;;;;16.30;99.90;;;;;;4953813;28;19933;-69
2022/10/17 09:29:52;;;;;;;;;;;16.20;99.90;;;;;;4952515;28;19933;-67
2022/10/17 09:32:22;;;;;;;;;;;16.20;99.90;;;;;;4953551;28;19916;-68
2022/10/17 09:34:49;;;;;;;;;;;16.20;99.90;;;;;;4952858;28;20333;-67
2022/10/17 09:37:16;;;;;;;;;;;16.20;99.90;;;;;;4953236;28;19922;-68
2022/10/17 09:39:43;;;;;;;;;;;16.30;99.90;;;;;;4952892;28;19930;-70
2022/10/17 09:42:14;;;;;;;;;;;16.30;99.90;;;;;;4950221;28;19923;-70
2022/10/17 09:44:49;;;;;;;;;;;16.30;99.90;;;;;;4948859;28;20001;-67
2022/10/17 09:47:18;;;;;;;;;;;16.30;99.90;;;;;;4948769;28;19922;-67
2022/10/17 09:49:46;;;;;;;;;;;16.30;99.90;;;;;;4948743;28;19950;-68
2022/10/17 09:52:16;;;;;;;;;;;16.30;99.90;;;;;;4949047;28;19915;-69
2022/10/17 09:54:47;;;;;;;;;;;16.40;99.90;;;;;;4947416;28;19992;-67
2022/10/17 09:57:15;;;;;;;;;;;16.30;99.90;;;;;;4948729;28;20055;-68
2022/10/17 09:59:55;;;;;;;;;;;16.30;99.90;;;;;;4949176;28;19964;-67
2022/10/17 10:02:23;;;;;;;;;;;16.30;99.90;;;;;;4929477;29;19915;-68
2022/10/17 10:04:54;;;;;;;;;;;16.30;99.90;;;;;;4929323;29;19937;-70
2022/10/17 10:07:21;;;;;;;;;;;16.40;99.90;;;;;;4929306;29;20543;-67
2022/10/17 10:09:48;;;;;;;;;;;16.30;99.90;;;;;;4939005;29;19918;-67
2022/10/17 10:12:21;;;;;;;;;;;16.30;99.90;;;;;;4947573;28;20025;-68
2022/10/17 10:14:48;;;;;;;;;;;16.30;99.90;;;;;;4948471;28;20561;-68
2022/10/17 10:17:34;;;;;;;;;;;16.30;99.90;;;;;;4948523;28;20567;-68
2022/10/17 10:20:03;;;;;;;;;;;16.20;99.90;;;;;;4948079;28;19915;-71
2022/10/17 10:22:29;;;;;;;;;;;16.20;99.90;;;;;;4939864;28;19922;-68
2022/10/17 10:25:08;;;;;;;;;;;16.20;99.90;;;;;;4949911;28;19918;-67
2022/10/17 10:27:35;;;;;;;;;;;16.20;99.90;;;;;;4948388;28;20687;-67
2022/10/17 10:30:03;;;;;;;;;;;16.20;99.90;;;;;;4948366;28;19966;-68
2022/10/17 10:32:34;;;;;;;;;;;16.20;99.90;;;;;;4947621;28;20646;-68
2022/10/17 10:35:01;;;;;;;;;;;16.20;99.90;;;;;;4948203;28;20469;-67
2022/10/17 10:37:31;;;;;;;;;;;16.10;99.90;;;;;;4948587;28;20340;-68
2022/10/17 10:40:15;;;;;;;;;;;16.10;99.90;;;;;;4946784;28;19919;-67
2022/10/17 10:42:41;;;;;;;;;;;16.00;99.90;;;;;;4948219;28;19915;-67
2022/10/17 10:45:11;;;;;;;;;;;16.00;99.90;;;;;;4946948;28;19914;-67
2022/10/17 10:47:38;;;;;;;;;;;16.10;99.90;;;;;;4947974;28;19914;-69
2022/10/17 10:50:23;;;;;;;;;;;16.00;99.90;;;;;;4945804;28;19989;-69
2022/10/17 10:52:53;;;;;;;;;;;16.10;99.90;;;;;;4947526;28;19921;-69
2022/10/17 10:55:27;;;;;;;;;;;16.10;99.90;;;;;;4932519;28;20021;-68
2022/10/17 10:57:56;;;;;;;;;;;16.10;99.90;;;;;;4948139;28;19914;-69
2022/10/17 11:00:25;;;;;;;;;;;16.10;99.90;;;;;;4947341;28;19934;-69
2022/10/17 11:03:09;;;;;;;;;;;16.10;99.90;;;;;;4947731;28;19969;-68
2022/10/17 11:05:39;;;;;;;;;;;16.10;99.90;;;;;;4947924;28;19915;-68
2022/10/17 11:08:11;;;;;;;;;;;16.30;99.90;;;;;;4946901;28;20362;-69
2022/10/17 11:10:53;;;;;;;;;;;16.20;99.90;;;;;;4947550;28;20301;-68
2022/10/17 11:13:22;;;;;;;;;;;16.20;99.90;;;;;;4947583;28;19942;-70
2022/10/17 11:15:54;;;;;;;;;;;16.30;99.90;;;;;;4947725;28;19923;-71
2022/10/17 11:18:24;;;;;;;;;;;16.20;99.90;;;;;;4947440;28;19968;-69
2022/10/17 11:21:03;;;;;;;;;;;16.20;99.90;;;;;;4947131;28;20483;-67
2022/10/17 11:23:36;;;;;;;;;;;16.20;99.90;;;;;;4946844;28;19918;-68
2022/10/17 11:26:05;;;;;;;;;;;16.20;99.90;;;;;;4947426;28;19958;-67
2022/10/17 11:28:32;;;;;;;;;;;16.20;99.90;;;;;;4947643;28;19969;-68
2022/10/17 11:31:07;;;;;;;;;;;16.20;99.90;;;;;;4946298;28;19915;-70
2022/10/17 11:33:41;;;;;;;;;;;16.20;99.90;;;;;;4947335;28;19950;-67
2022/10/17 11:36:09;;;;;;;;;;;16.20;99.90;;;;;;4947277;28;19923;-66
2022/10/17 11:38:41;;;;;;;;;;;16.20;99.90;;;;;;4945080;28;20001;-67
2022/10/17 11:41:13;;;;;;;;;;;16.20;99.90;;;;;;4946978;28;19914;-71
2022/10/17 11:43:47;;;;;;;;;;;16.20;99.90;;;;;;4947146;28;19921;-69
2022/10/17 11:46:20;;;;;;;;;;;16.20;99.90;;;;;;4947469;28;19914;-68
2022/10/17 11:48:47;;;;;;;;;;;16.20;99.90;;;;;;4946529;28;19915;-68
2022/10/17 11:51:14;;;;;;;;;;;16.20;99.90;;;;;;4946879;28;19930;-68
2022/10/17 11:53:46;;;;;;;;;;;16.10;99.90;;;;;;4945687;28;19918;-67
2022/10/17 11:56:16;;;;;;;;;;;16.10;99.90;;;;;;4946400;28;19933;-69
2022/10/17 11:58:43;;;;;;;;;;;16.00;99.90;;;;;;4946973;28;19961;-69
2022/10/17 12:01:24;;;;;;;;;;;16.00;99.90;;;;;;4945793;28;20421;-67
2022/10/17 12:04:08;;;;;;;;;;;15.90;99.90;;;;;;4946792;28;20297;-68
2022/10/17 12:06:53;;;;;;;;;;;15.90;99.90;;;;;;4946416;28;19914;-68
2022/10/17 12:09:40;;;;;;;;;;;15.80;99.90;;;;;;4945917;28;19924;-67
2022/10/17 12:12:06;;;;;;;;;;;15.80;99.90;;;;;;4946495;29;19914;-67
2022/10/17 12:14:33;;;;;;;;;;;15.80;99.90;;;;;;4948326;28;20296;-69
2022/10/17 12:17:00;;;;;;;;;;;15.80;99.90;;;;;;4952759;28;19914;-68
2022/10/17 12:19:31;;;;;;;;;;;15.70;99.90;;;;;;4952530;28;19914;-68
2022/10/17 12:22:06;;;;;;;;;;;15.80;99.90;;;;;;4952555;28;19915;-67
2022/10/17 12:24:35;;;;;;;;;;;15.80;99.90;;;;;;4933616;29;19915;-67
2022/10/17 12:27:21;;;;;;;;;;;15.80;99.90;;;;;;4933570;28;20017;-70
2022/10/17 12:29:49;;;;;;;;;;;15.80;99.90;;;;;;4933655;29;19915;-67
2022/10/17 12:32:16;;;;;;;;;;;15.70;99.90;;;;;;4932831;28;19910;-68
2022/10/17 12:34:55;;;;;;;;;;;15.70;99.90;;;;;;4933228;29;19922;-67
2022/10/17 12:37:40;;;;;;;;;;;15.70;99.90;;;;;;4937138;28;20062;-68
2022/10/17 12:40:48;;;;;;;;;;;15.70;99.90;;;;;;4952189;28;20586;-69
2022/10/17 12:43:15;;;;;;;;;;;15.70;99.90;;;;;;4930231;29;20459;-66
2022/10/17 12:45:54;;;;;;;;;;;15.80;99.90;;;;;;4930213;29;19918;-66
2022/10/17 12:48:41;;;;;;;;;;;15.90;99.90;;;;;;4943249;28;19910;-70
2022/10/17 12:51:12;;;;;;;;;;;15.90;99.90;;;;;;4941117;28;20297;-70
2022/10/17 12:53:45;;;;;;;;;;;15.90;99.90;;;;;;4951709;28;19940;-67
2022/10/17 12:56:17;;;;;;;;;;;15.90;99.90;;;;;;4952286;28;20301;-70
2022/10/17 12:58:48;;;;;;;;;;;15.80;99.90;;;;;;4951842;28;20001;-67
2022/10/17 13:01:33;;;;;;;;;;;15.80;99.90;;;;;;4951885;28;19910;-69
2022/10/17 13:04:05;;;;;;;;;;;15.70;99.90;;;;;;4952078;28;19914;-68
2022/10/17 13:06:39;;;;;;;;;;;15.70;99.90;;;;;;4951274;28;19921;-67
2022/10/17 13:09:09;;;;;;;;;;;15.60;99.90;;;;;;4951442;28;19918;-68
2022/10/17 13:11:37;;;;;;;;;;;15.60;99.90;;;;;;4951543;28;19910;-67
2022/10/17 13:14:09;;;;;;;;;;;15.60;99.90;;;;;;4952025;28;20475;-67
2022/10/17 13:16:40;;;;;;;;;;;15.60;99.90;;;;;;4951988;28;19945;-67
2022/10/17 13:19:15;;;;;;;;;;;15.60;99.90;;;;;;4952132;28;20363;-67
2022/10/17 13:21:54;;;;;;;;;;;15.60;99.90;;;;;;4950924;28;19961;-68
2022/10/17 13:24:31;;;;;;;;;;;15.60;99.90;;;;;;4951726;28;19940;-69
2022/10/17 13:26:58;;;;;;;;;;;15.60;99.90;;;;;;4951743;28;20384;-68
2022/10/17 13:29:27;;;;;;;;;;;15.50;99.90;;;;;;4951941;28;19921;-67
2022/10/17 13:31:55;;;;;;;;;;;15.50;99.90;;;;;;4951615;28;20277;-68
2022/10/17 13:34:23;;;;;;;;;;;15.50;99.90;;;;;;4952055;28;19915;-68
2022/10/17 13:36:53;;;;;;;;;;;15.50;99.90;;;;;;4950513;28;19926;-67
2022/10/17 13:39:23;;;;;;;;;;;15.50;99.90;;;;;;4951901;28;19980;-70
2022/10/17 13:41:55;;;;;;;;;;;15.40;99.90;;;;;;4951624;28;20518;-67
2022/10/17 13:44:26;;;;;;;;;;;15.50;99.90;;;;;;4951805;28;19911;-68
2022/10/17 13:46:52;;;;;;;;;;;15.50;99.90;;;;;;4951776;28;19911;-68
2022/10/17 13:49:27;;;;;;;;;;;15.50;99.90;;;;;;4951207;28;20301;-67
2022/10/17 13:51:54;;;;;;;;;;;15.40;99.90;;;;;;4950608;28;19919;-68
2022/10/17 13:54:35;;;;;;;;;;;15.40;99.90;;;;;;4951684;28;19918;-67
2022/10/17 13:57:03;;;;;;;;;;;15.40;99.90;;;;;;4951763;28;19918;-66
2022/10/17 13:59:40;;;;;;;;;;;15.40;99.90;;;;;;4951676;28;20292;-68
2022/10/17 14:02:18;;;;;;;;;;;15.40;99.90;;;;;;4950911;28;19953;-69
2022/10/17 14:04:45;;;;;;;;;;;15.30;99.90;;;;;;4951416;28;20627;-67
2022/10/17 14:07:29;;;;;;;;;;;15.30;99.90;;;;;;4950623;28;19918;-67
2022/10/17 14:09:56;;;;;;;;;;;15.30;99.90;;;;;;4951322;28;19910;-66
2022/10/17 14:12:23;;;;;;;;;;;15.30;99.90;;;;;;4951598;28;20428;-67
2022/10/17 14:14:52;;;;;;;;;;;15.30;99.90;;;;;;4951288;28;19918;-67
2022/10/17 14:17:23;;;;;;;;;;;15.30;99.90;;;;;;4951253;28;19921;-67
2022/10/17 14:19:54;;;;;;;;;;;15.40;99.90;;;;;;4951117;28;20017;-67
2022/10/17 14:22:21;;;;;;;;;;;15.40;99.90;;;;;;4950531;28;19922;-68
2022/10/17 14:24:48;;;;;;;;;;;15.40;99.90;;;;;;4951847;28;19914;-67
2022/10/17 14:27:30;;;;;;;;;;;15.40;99.90;;;;;;4954966;28;20464;-67
2022/10/17 14:29:59;;;;;;;;;;;15.40;99.90;;;;;;4954191;28;19917;-66
2022/10/17 14:32:27;;;;;;;;;;;15.30;99.90;;;;;;4954648;28;20012;-67